Time;durP1;ratioP1;P1;durP2;ratioP2;P2;SDS_P1;SDS_P2;PMS_P1;PMS_P2;Temp;Humidity;BMP_temperature;BMP_pressure;BME280_temperature;BME280_humidity;BME280_pressure;Samples;Min_cycle;Max_cycle;Signal;HPM_P1;HPM_P2
2022/03/07 00:02:12;;;;;;;24.70;15.43;;;4.50;44.70;;;;;;5054767;28;20028;-84
2022/03/07 00:04:38;;;;;;;27.53;15.37;;;4.40;44.80;;;;;;5071007;28;20123;-84
2022/03/07 00:07:04;;;;;;;25.17;15.17;;;4.40;44.90;;;;;;5072284;28;20060;-84
2022/03/07 00:09:29;;;;;;;24.10;14.83;;;4.30;45.00;;;;;;5071849;28;20047;-84
2022/03/07 00:11:55;;;;;;;26.40;15.60;;;4.30;45.70;;;;;;5049046;28;20029;-84
2022/03/07 00:14:21;;;;;;;26.57;15.57;;;4.30;45.20;;;;;;5054635;28;20024;-84
2022/03/07 00:16:47;;;;;;;26.53;16.10;;;4.30;45.20;;;;;;5053878;28;20029;-84
2022/03/07 00:19:13;;;;;;;24.57;15.23;;;4.30;45.10;;;;;;5072184;28;20032;-84
2022/03/07 00:21:39;;;;;;;23.07;14.63;;;4.20;45.30;;;;;;5072309;28;20024;-84
2022/03/07 00:24:07;;;;;;;24.80;14.63;;;4.20;45.30;;;;;;5054259;28;20020;-84
2022/03/07 00:26:33;;;;;;;26.03;15.93;;;4.20;45.50;;;;;;5052817;28;20082;-84
2022/03/07 00:28:59;;;;;;;26.47;15.53;;;4.20;45.60;;;;;;5055591;28;20039;-84
2022/03/07 00:31:24;;;;;;;25.80;15.03;;;4.20;45.60;;;;;;5054120;28;20401;-84
2022/03/07 00:33:51;;;;;;;28.90;15.30;;;4.20;45.50;;;;;;5071528;28;20025;-84
2022/03/07 00:36:19;;;;;;;26.90;15.83;;;4.00;45.50;;;;;;5054417;28;20058;-84
2022/03/07 00:38:45;;;;;;;24.40;15.73;;;4.00;45.70;;;;;;5053360;28;20123;-84
2022/03/07 00:41:11;;;;;;;28.20;16.43;;;4.00;45.80;;;;;;5068780;28;20129;-84
2022/03/07 00:43:39;;;;;;;26.67;16.67;;;4.00;45.80;;;;;;5053358;28;20029;-84
2022/03/07 00:46:05;;;;;;;28.07;16.00;;;3.90;45.80;;;;;;5053648;28;20035;-84
2022/03/07 00:48:30;;;;;;;26.60;16.53;;;3.90;45.90;;;;;;5054395;28;20021;-84
2022/03/07 00:50:56;;;;;;;24.83;15.90;;;3.90;46.10;;;;;;5056780;28;20475;-85
2022/03/07 00:53:24;;;;;;;27.63;15.77;;;3.90;46.10;;;;;;5057809;28;20024;-84
2022/03/07 00:55:51;;;;;;;25.87;15.00;;;3.90;46.10;;;;;;5056114;28;20029;-84
2022/03/07 00:58:18;;;;;;;24.50;15.83;;;3.90;46.20;;;;;;5075843;28;20025;-84
2022/03/07 01:00:44;;;;;;;24.97;16.07;;;4.00;46.20;;;;;;5057463;28;20051;-84
2022/03/07 01:03:11;;;;;;;25.10;15.63;;;4.00;46.20;;;;;;5070975;28;20017;-84
2022/03/07 01:05:37;;;;;;;27.37;15.30;;;4.00;46.20;;;;;;5057436;28;20163;-84
2022/03/07 01:08:03;;;;;;;27.73;16.93;;;4.00;46.30;;;;;;5075210;28;20047;-84
2022/03/07 01:10:29;;;;;;;26.10;16.07;;;4.00;46.30;;;;;;5057498;28;20405;-84
2022/03/07 01:12:55;;;;;;;27.47;15.83;;;4.00;46.40;;;;;;5073588;28;20039;-84
2022/03/07 01:15:21;;;;;;;23.13;15.57;;;3.90;46.40;;;;;;5074466;28;20504;-84
2022/03/07 01:17:48;;;;;;;24.47;16.00;;;3.90;46.40;;;;;;5056095;28;20032;-84
2022/03/07 01:20:13;;;;;;;23.33;15.57;;;3.90;46.50;;;;;;5057559;28;20037;-84
2022/03/07 01:22:41;;;;;;;26.67;15.93;;;4.00;46.50;;;;;;5073614;28;20052;-84
2022/03/07 01:25:08;;;;;;;30.80;16.53;;;3.90;46.60;;;;;;5057391;28;20024;-84
2022/03/07 01:27:34;;;;;;;27.97;16.80;;;3.90;46.60;;;;;;5057570;28;20452;-85
2022/03/07 01:30:00;;;;;;;26.67;16.33;;;3.90;46.50;;;;;;5064053;28;20032;-85
2022/03/07 01:32:26;;;;;;;26.80;16.50;;;3.90;46.60;;;;;;5056658;28;20070;-85
2022/03/07 01:34:51;;;;;;;27.93;16.37;;;3.90;46.60;;;;;;5057024;28;20449;-85
2022/03/07 01:37:18;;;;;;;26.97;16.47;;;3.80;46.60;;;;;;5057241;28;20031;-84
2022/03/07 01:39:44;;;;;;;26.17;15.33;;;3.80;46.80;;;;;;5057003;28;20029;-85
2022/03/07 01:42:10;;;;;;;23.37;14.97;;;3.80;46.90;;;;;;5074744;28;20029;-85
2022/03/07 01:44:36;;;;;;;26.03;15.70;;;3.80;46.90;;;;;;5057188;28;20557;-84
2022/03/07 01:47:03;;;;;;;24.83;15.87;;;3.80;46.90;;;;;;5056709;28;20078;-85
2022/03/07 01:49:29;;;;;;;25.50;16.13;;;3.80;47.00;;;;;;5054353;28;20127;-84
2022/03/07 01:51:56;;;;;;;24.13;15.97;;;3.70;46.90;;;;;;5071300;28;20170;-84
2022/03/07 01:54:23;;;;;;;25.10;16.03;;;3.80;47.00;;;;;;5056291;28;20035;-84
2022/03/07 01:56:50;;;;;;;28.10;16.03;;;3.80;46.90;;;;;;5056383;28;20033;-84
2022/03/07 01:59:23;;;;;;;26.13;16.37;;;3.80;46.90;;;;;;5055741;28;20056;-85
2022/03/07 02:01:49;;;;;;;23.77;15.48;;;3.70;47.00;;;;;;5039635;28;20063;-85
2022/03/07 02:04:15;;;;;;;25.20;16.43;;;3.80;47.20;;;;;;5055721;28;20026;-85
2022/03/07 02:06:41;;;;;;;24.80;15.07;;;3.70;47.10;;;;;;5063277;28;20024;-85
2022/03/07 02:09:08;;;;;;;26.43;16.03;;;3.70;47.10;;;;;;5074255;28;20121;-85
2022/03/07 02:11:34;;;;;;;24.73;15.70;;;3.80;47.10;;;;;;5072790;28;20053;-85
2022/03/07 02:14:18;;;;;;;24.00;15.13;;;3.80;47.00;;;;;;5056224;28;20025;-84
2022/03/07 02:16:44;;;;;;;22.90;15.20;;;3.80;47.10;;;;;;5065923;28;20430;-84
2022/03/07 02:19:10;;;;;;;23.43;15.07;;;3.80;47.00;;;;;;5056482;28;20028;-84
2022/03/07 02:21:40;;;;;;;26.33;17.67;;;3.80;47.00;;;;;;5054201;28;20501;-83
2022/03/07 02:24:06;;;;;;;25.50;17.53;;;3.80;47.00;;;;;;5072432;28;20020;-84
2022/03/07 02:26:31;;;;;;;21.93;15.17;;;3.80;47.10;;;;;;5060519;28;20032;-84
2022/03/07 02:28:57;;;;;;;27.97;15.87;;;3.80;47.20;;;;;;5056425;28;20024;-84
2022/03/07 02:31:23;;;;;;;24.03;15.80;;;3.80;47.20;;;;;;5055647;28;20597;-84
2022/03/07 02:33:49;;;;;;;24.03;15.73;;;3.80;47.20;;;;;;5055731;28;20033;-84
2022/03/07 02:36:15;;;;;;;24.37;16.17;;;3.80;47.10;;;;;;5071723;28;20073;-84
2022/03/07 02:38:41;;;;;;;23.93;15.67;;;3.80;47.00;;;;;;5074077;28;20478;-85
2022/03/07 02:41:07;;;;;;;22.00;14.53;;;3.80;47.00;;;;;;5051713;28;20063;-84
2022/03/07 02:43:32;;;;;;;23.30;15.73;;;3.80;47.00;;;;;;5055816;28;20139;-85
2022/03/07 02:45:58;;;;;;;23.27;15.10;;;3.80;47.00;;;;;;5055709;28;20029;-84
2022/03/07 02:48:25;;;;;;;24.17;16.07;;;3.80;46.90;;;;;;5056862;28;20368;-84
2022/03/07 02:50:53;;;;;;;22.97;14.87;;;3.80;46.90;;;;;;5048034;28;20021;-84
2022/03/07 02:53:19;;;;;;;22.93;15.57;;;3.80;47.00;;;;;;5053778;28;20032;-84
2022/03/07 02:55:44;;;;;;;22.80;15.73;;;3.80;47.00;;;;;;5055280;28;20386;-85
2022/03/07 02:58:11;;;;;;;23.93;14.97;;;3.80;46.90;;;;;;5055562;28;20032;-84
2022/03/07 03:00:37;;;;;;;26.70;15.20;;;3.70;46.90;;;;;;5054370;28;20042;-84
2022/03/07 03:03:03;;;;;;;25.33;14.90;;;3.80;47.10;;;;;;5062769;28;20021;-84
2022/03/07 03:05:28;;;;;;;23.33;15.43;;;3.80;47.00;;;;;;5065069;28;20050;-85
2022/03/07 03:07:54;;;;;;;21.87;15.27;;;3.70;46.90;;;;;;5054263;28;20066;-84
2022/03/07 03:10:20;;;;;;;24.83;16.00;;;3.70;47.00;;;;;;5045613;28;20024;-84
2022/03/07 03:12:47;;;;;;;23.90;16.37;;;3.70;47.00;;;;;;5054551;28;20035;-84
2022/03/07 03:15:14;;;;;;;24.67;15.53;;;3.70;47.00;;;;;;5071727;28;20028;-85
2022/03/07 03:17:41;;;;;;;21.33;14.87;;;3.70;47.10;;;;;;5055206;28;20024;-84
2022/03/07 03:20:10;;;;;;;20.33;14.80;;;3.70;47.10;;;;;;5071306;28;20031;-84
2022/03/07 03:22:39;;;;;;;27.73;17.13;;;3.80;47.20;;;;;;5068571;28;20020;-84
2022/03/07 03:25:06;;;;;;;25.73;16.77;;;3.80;47.00;;;;;;5067569;28;20025;-84
2022/03/07 03:27:32;;;;;;;24.80;15.93;;;3.80;47.00;;;;;;5055061;28;20020;-84
2022/03/07 03:29:58;;;;;;;24.23;15.93;;;3.80;47.50;;;;;;5055324;28;20024;-84
2022/03/07 03:32:25;;;;;;;24.10;16.17;;;3.70;46.90;;;;;;5055355;28;20032;-84
2022/03/07 03:34:51;;;;;;;24.67;16.40;;;3.80;47.10;;;;;;5054786;28;20048;-84
2022/03/07 03:37:17;;;;;;;25.97;15.60;;;3.80;47.20;;;;;;5054942;28;20033;-84
2022/03/07 03:39:43;;;;;;;24.80;16.20;;;3.80;47.20;;;;;;5060359;28;20047;-84
2022/03/07 03:42:08;;;;;;;24.83;16.10;;;3.80;47.20;;;;;;5051247;28;20024;-84
2022/03/07 03:44:34;;;;;;;26.80;16.60;;;3.80;47.20;;;;;;5061828;28;20093;-84
2022/03/07 03:47:00;;;;;;;24.40;16.63;;;3.80;47.20;;;;;;5072306;28;20025;-84
2022/03/07 03:49:25;;;;;;;24.13;16.23;;;3.80;47.30;;;;;;5039517;28;20025;-84
2022/03/07 03:51:51;;;;;;;26.10;16.40;;;3.80;47.20;;;;;;5073019;28;20021;-85
2022/03/07 03:54:17;;;;;;;24.90;16.50;;;3.80;47.30;;;;;;5055299;28;20033;-84
2022/03/07 03:56:42;;;;;;;26.87;16.60;;;3.80;47.40;;;;;;5054185;28;20119;-84
2022/03/07 03:59:08;;;;;;;22.73;15.97;;;3.80;47.40;;;;;;5054506;28;20036;-84
2022/03/07 04:01:34;;;;;;;23.90;16.57;;;3.70;47.40;;;;;;5072548;28;20067;-84
2022/03/07 04:03:59;;;;;;;24.10;16.23;;;3.70;47.60;;;;;;5054576;28;20052;-85
2022/03/07 04:06:25;;;;;;;25.73;16.93;;;3.70;47.70;;;;;;5054012;28;20021;-84
2022/03/07 04:08:55;;;;;;;22.87;15.63;;;3.70;47.70;;;;;;5054576;28;20055;-84
2022/03/07 04:11:21;;;;;;;23.40;16.80;;;3.70;47.60;;;;;;5053780;28;20035;-85
2022/03/07 04:13:46;;;;;;;25.13;16.83;;;3.80;47.60;;;;;;5047535;28;20021;-85
2022/03/07 04:16:12;;;;;;;26.40;16.93;;;3.80;47.60;;;;;;5068134;28;20174;-84
2022/03/07 04:18:38;;;;;;;26.57;16.23;;;3.80;47.80;;;;;;5055111;28;20021;-85
2022/03/07 04:21:04;;;;;;;24.20;16.90;;;3.80;47.90;;;;;;5072558;28;20027;-84
2022/03/07 04:23:29;;;;;;;26.83;17.10;;;3.80;47.80;;;;;;5054985;28;20021;-84
2022/03/07 04:25:55;;;;;;;31.50;17.43;;;3.80;47.80;;;;;;5058387;28;20017;-84
2022/03/07 04:28:21;;;;;;;25.77;16.67;;;3.80;47.70;;;;;;5057898;28;20171;-84
2022/03/07 04:30:46;;;;;;;29.07;18.23;;;3.80;47.70;;;;;;5057698;28;20035;-84
2022/03/07 04:33:12;;;;;;;24.03;16.43;;;3.90;48.30;;;;;;5076503;28;20024;-84
2022/03/07 04:35:38;;;;;;;26.00;15.93;;;3.90;47.80;;;;;;5057823;28;20067;-84
2022/03/07 04:38:04;;;;;;;29.13;18.70;;;3.90;47.70;;;;;;5057883;28;20025;-84
2022/03/07 04:40:30;;;;;;;33.90;20.70;;;3.90;47.70;;;;;;5058566;28;20032;-85
2022/03/07 04:42:58;;;;;;;48.87;25.73;;;3.90;47.60;;;;;;5078963;28;20074;-85
2022/03/07 04:45:25;;;;;;;35.70;21.73;;;3.90;47.70;;;;;;5072823;28;20044;-83
2022/03/07 04:47:50;;;;;;;27.77;17.70;;;3.80;47.70;;;;;;5070676;28;20092;-84
2022/03/07 04:50:16;;;;;;;30.27;17.47;;;3.90;47.80;;;;;;5071208;28;20058;-83
2022/03/07 04:52:42;;;;;;;24.80;16.60;;;3.90;47.80;;;;;;5089659;28;20036;-84
2022/03/07 04:55:12;;;;;;;23.53;16.40;;;3.90;47.70;;;;;;5076985;28;20103;-84
2022/03/07 04:57:38;;;;;;;22.83;16.80;;;3.90;47.70;;;;;;5058049;28;20501;-83
2022/03/07 05:00:07;;;;;;;27.13;17.63;;;3.90;47.80;;;;;;5059515;28;20036;-83
2022/03/07 05:02:33;;;;;;;29.07;19.60;;;3.90;47.70;;;;;;5056373;28;20031;-83
2022/03/07 05:04:59;;;;;;;25.53;17.93;;;3.90;47.80;;;;;;5057896;28;20029;-83
2022/03/07 05:07:24;;;;;;;25.33;17.87;;;3.90;47.70;;;;;;5057166;28;20028;-84
2022/03/07 05:09:50;;;;;;;25.23;18.00;;;3.90;47.80;;;;;;5075931;28;20053;-85
2022/03/07 05:12:16;;;;;;;24.50;17.60;;;3.90;47.80;;;;;;5058466;28;20040;-84
2022/03/07 05:14:42;;;;;;;27.00;18.03;;;3.90;47.70;;;;;;5058402;28;20466;-84
2022/03/07 05:17:08;;;;;;;23.07;16.77;;;3.90;47.70;;;;;;5074231;28;20032;-83
2022/03/07 05:19:34;;;;;;;22.73;16.63;;;3.90;47.80;;;;;;5052237;28;20064;-83
2022/03/07 05:22:00;;;;;;;25.70;17.93;;;3.90;47.80;;;;;;5053730;28;20047;-83
2022/03/07 05:24:25;;;;;;;25.20;18.33;;;3.90;47.80;;;;;;5055897;28;20082;-84
2022/03/07 05:26:52;;;;;;;25.67;18.63;;;3.80;47.80;;;;;;5057831;28;20025;-83
2022/03/07 05:29:18;;;;;;;26.90;19.17;;;3.80;47.90;;;;;;5045984;28;20055;-83
2022/03/07 05:31:43;;;;;;;29.27;18.40;;;3.80;47.90;;;;;;5048532;28;20032;-84
2022/03/07 05:34:09;;;;;;;30.30;18.57;;;3.80;47.90;;;;;;5049910;28;20096;-84
2022/03/07 05:36:35;;;;;;;29.57;17.80;;;3.80;47.80;;;;;;5068859;28;20039;-84
2022/03/07 05:39:01;;;;;;;27.17;18.83;;;3.80;47.90;;;;;;5057530;28;20039;-84
2022/03/07 05:41:26;;;;;;;30.33;18.73;;;3.80;47.90;;;;;;5050170;28;20024;-84
2022/03/07 05:43:52;;;;;;;31.57;18.77;;;3.80;48.00;;;;;;5072417;28;20027;-85
2022/03/07 05:46:18;;;;;;;30.27;18.13;;;3.80;48.00;;;;;;5060591;28;20056;-85
2022/03/07 05:48:44;;;;;;;37.30;19.17;;;3.70;48.10;;;;;;5054880;28;20020;-85
2022/03/07 05:51:10;;;;;;;28.70;18.17;;;3.70;48.20;;;;;;5064056;28;20390;-85
2022/03/07 05:53:36;;;;;;;29.20;17.97;;;3.70;48.20;;;;;;5050949;28;20059;-85
2022/03/07 05:56:02;;;;;;;33.30;17.60;;;3.70;48.20;;;;;;5064937;28;20037;-84
2022/03/07 05:58:28;;;;;;;37.87;20.83;;;3.70;48.40;;;;;;5063326;28;20667;-85
2022/03/07 06:00:54;;;;;;;33.73;20.50;;;3.70;48.40;;;;;;5057378;28;20024;-85
2022/03/07 06:03:19;;;;;;;31.47;20.23;;;3.70;48.30;;;;;;5053019;28;20374;-84
2022/03/07 06:05:45;;;;;;;31.83;19.97;;;3.70;48.30;;;;;;5072949;28;20040;-85
2022/03/07 06:08:11;;;;;;;40.07;21.80;;;3.70;48.30;;;;;;5072977;28;20044;-85
2022/03/07 06:10:37;;;;;;;36.10;21.03;;;3.70;48.30;;;;;;5065511;28;20170;-84
2022/03/07 06:13:02;;;;;;;37.90;22.60;;;3.70;48.30;;;;;;5074572;28;20424;-85
2022/03/07 06:15:28;;;;;;;30.60;19.37;;;3.80;48.40;;;;;;5056955;28;20029;-85
2022/03/07 06:18:00;;;;;;;29.70;19.57;;;3.80;48.40;;;;;;5071097;28;20052;-85
2022/03/07 06:20:27;;;;;;;32.85;19.60;;;3.80;48.40;;;;;;5055841;28;20158;-85
2022/03/07 06:22:53;;;;;;;29.03;18.67;;;3.80;48.40;;;;;;5062110;28;20020;-85
2022/03/07 06:25:19;;;;;;;33.60;19.20;;;3.80;48.30;;;;;;5073629;28;20036;-85
2022/03/07 06:27:45;;;;;;;28.03;18.63;;;3.80;48.30;;;;;;5057014;28;20028;-85
2022/03/07 06:30:11;;;;;;;26.87;17.77;;;3.80;48.30;;;;;;5056789;28;20036;-85
2022/03/07 06:32:38;;;;;;;27.23;18.27;;;3.80;48.30;;;;;;5057040;28;20028;-85
2022/03/07 06:35:05;;;;;;;25.97;18.03;;;3.80;48.20;;;;;;5058241;28;20020;-85
2022/03/07 06:37:31;;;;;;;30.73;18.77;;;3.80;48.30;;;;;;5063150;28;20016;-85
2022/03/07 06:39:57;;;;;;;27.93;18.93;;;3.80;48.40;;;;;;5064061;28;20028;-85
2022/03/07 06:42:23;;;;;;;34.57;19.87;;;3.80;48.40;;;;;;5057285;28;20020;-85
2022/03/07 06:44:49;;;;;;;34.80;22.00;;;3.80;48.50;;;;;;5056669;28;20027;-84
2022/03/07 06:47:16;;;;;;;33.53;21.83;;;3.80;48.60;;;;;;5092269;28;20165;-85
2022/03/07 06:49:45;;;;;;;42.20;23.27;;;3.80;48.50;;;;;;5056995;28;20029;-85
2022/03/07 06:52:12;;;;;;;39.47;23.27;;;3.80;48.50;;;;;;5073086;28;20025;-85
2022/03/07 06:54:37;;;;;;;32.60;20.33;;;3.90;48.70;;;;;;5069849;28;20120;-85
2022/03/07 06:57:03;;;;;;;36.80;21.43;;;3.90;48.70;;;;;;5074102;28;20054;-85
2022/03/07 06:59:29;;;;;;;33.20;21.67;;;3.90;48.60;;;;;;5079146;28;20035;-85
2022/03/07 07:01:55;;;;;;;33.57;19.67;;;3.90;48.70;;;;;;5088765;28;20028;-85
2022/03/07 07:04:21;;;;;;;29.37;20.43;;;3.90;48.70;;;;;;5073518;28;20504;-85
2022/03/07 07:06:47;;;;;;;39.87;20.63;;;3.90;48.70;;;;;;5063131;28;20032;-85
2022/03/07 07:09:12;;;;;;;33.03;18.97;;;4.00;48.70;;;;;;5067273;28;20559;-85
2022/03/07 07:11:38;;;;;;;37.07;22.47;;;4.00;48.60;;;;;;5055730;28;20056;-85
2022/03/07 07:14:04;;;;;;;36.20;22.33;;;4.00;48.60;;;;;;5072608;28;20478;-84
2022/03/07 07:16:30;;;;;;;31.43;19.43;;;4.00;48.60;;;;;;5056060;28;20029;-86
2022/03/07 07:18:55;;;;;;;37.10;21.77;;;4.10;49.30;;;;;;5057129;28;20028;-85
2022/03/07 07:21:21;;;;;;;37.80;23.33;;;4.10;48.70;;;;;;5073251;28;20028;-85
2022/03/07 07:23:47;;;;;;;46.70;29.13;;;4.20;48.70;;;;;;5080272;28;20043;-85
2022/03/07 07:26:13;;;;;;;31.37;19.23;;;4.20;48.70;;;;;;5055829;28;20059;-85
2022/03/07 07:28:38;;;;;;;28.57;17.83;;;4.20;48.60;;;;;;5057158;28;20499;-84
2022/03/07 07:31:04;;;;;;;34.77;21.50;;;4.30;48.70;;;;;;5090302;28;20456;-85
2022/03/07 07:33:30;;;;;;;33.53;21.57;;;4.30;48.60;;;;;;5067683;28;20075;-85
2022/03/07 07:35:56;;;;;;;31.73;20.87;;;4.30;48.60;;;;;;5073340;28;20036;-85
2022/03/07 07:38:21;;;;;;;31.13;21.37;;;4.30;48.60;;;;;;5058834;28;20031;-85
2022/03/07 07:40:49;;;;;;;32.30;20.20;;;4.40;48.60;;;;;;5058485;28;20119;-85
2022/03/07 07:43:15;;;;;;;35.03;23.93;;;4.50;48.50;;;;;;5077465;28;20023;-85
2022/03/07 07:45:41;;;;;;;37.47;24.33;;;4.50;48.50;;;;;;5062663;28;20116;-86
2022/03/07 07:48:07;;;;;;;38.13;21.23;;;4.50;48.50;;;;;;5053157;28;20052;-86
2022/03/07 07:50:33;;;;;;;31.00;21.17;;;4.50;48.40;;;;;;5061683;28;20442;-86
2022/03/07 07:52:58;;;;;;;28.03;19.27;;;4.40;48.50;;;;;;5054258;28;20517;-86
2022/03/07 07:55:24;;;;;;;28.43;19.30;;;4.40;48.50;;;;;;5053336;28;20032;-85
2022/03/07 07:57:50;;;;;;;31.27;19.83;;;4.40;48.50;;;;;;5056753;28;20078;-85
2022/03/07 08:00:19;;;;;;;32.37;20.13;;;4.40;48.50;;;;;;5054488;28;20043;-86
2022/03/07 08:02:46;;;;;;;29.07;19.47;;;4.40;48.50;;;;;;5071235;28;20036;-86
2022/03/07 08:05:13;;;;;;;34.47;20.50;;;4.40;48.50;;;;;;5071190;28;20036;-86
2022/03/07 08:07:41;;;;;;;29.93;20.00;;;4.40;48.60;;;;;;5068990;28;20030;-85
2022/03/07 08:10:09;;;;;;;28.87;19.57;;;4.30;48.50;;;;;;5059118;28;20449;-85
2022/03/07 08:12:35;;;;;;;32.53;19.83;;;4.30;48.50;;;;;;5072802;28;20474;-84
2022/03/07 08:15:00;;;;;;;26.13;18.10;;;4.50;48.50;;;;;;5054345;28;20025;-86
2022/03/07 08:17:26;;;;;;;31.07;18.87;;;4.60;48.20;;;;;;5078107;28;20029;-85
2022/03/07 08:19:52;;;;;;;33.90;20.20;;;4.60;48.00;;;;;;5071655;28;20166;-85
2022/03/07 08:22:17;;;;;;;39.23;19.90;;;4.60;48.00;;;;;;5072398;28;20070;-85
2022/03/07 08:24:43;;;;;;;27.23;19.43;;;4.60;48.10;;;;;;5075753;28;20050;-86
2022/03/07 08:27:09;;;;;;;26.27;18.83;;;4.60;48.00;;;;;;5086011;28;20444;-85
2022/03/07 08:29:35;;;;;;;28.33;18.93;;;4.60;47.90;;;;;;5053882;28;20056;-85
2022/03/07 08:32:00;;;;;;;27.83;18.37;;;4.60;48.50;;;;;;5068785;28;20078;-86
2022/03/07 08:34:26;;;;;;;30.93;20.33;;;4.50;47.90;;;;;;5054727;28;20557;-85
2022/03/07 08:36:52;;;;;;;43.83;27.27;;;4.60;48.00;;;;;;5054505;28;20101;-86
2022/03/07 08:39:17;;;;;;;42.80;26.33;;;4.60;48.40;;;;;;5083581;28;20020;-85
2022/03/07 08:41:43;;;;;;;36.33;24.17;;;4.70;47.80;;;;;;5051546;28;20063;-85
2022/03/07 08:44:09;;;;;;;32.07;21.60;;;5.20;47.50;;;;;;5052915;28;20409;-85
2022/03/07 08:46:35;;;;;;;34.07;19.63;;;6.40;45.80;;;;;;5051327;28;20028;-86
2022/03/07 08:49:02;;;;;;;24.77;17.80;;;6.60;45.80;;;;;;5049629;28;20532;-86
2022/03/07 08:51:28;;;;;;;26.10;17.13;;;6.40;46.20;;;;;;5047737;28;20025;-86
2022/03/07 08:53:53;;;;;;;30.03;17.93;;;6.40;46.50;;;;;;5051936;28;20020;-85
2022/03/07 08:56:19;;;;;;;26.67;18.03;;;6.50;46.60;;;;;;5051354;28;20032;-85
2022/03/07 08:58:45;;;;;;;25.97;17.83;;;6.50;46.30;;;;;;5053020;28;20394;-86
2022/03/07 09:01:11;;;;;;;31.03;17.93;;;6.60;46.20;;;;;;5070924;28;20036;-86
2022/03/07 09:03:36;;;;;;;29.03;18.60;;;6.70;46.00;;;;;;5070416;28;20024;-86
2022/03/07 09:06:03;;;;;;;32.10;19.17;;;6.80;45.70;;;;;;5053644;28;20501;-87
2022/03/07 09:08:28;;;;;;;27.27;17.60;;;6.70;45.20;;;;;;5051632;28;20040;-86
2022/03/07 09:10:54;;;;;;;28.33;19.77;;;6.70;45.40;;;;;;5052969;28;20039;-86
2022/03/07 09:13:20;;;;;;;30.17;19.17;;;6.70;45.40;;;;;;5059220;28;20113;-86
2022/03/07 09:15:47;;;;;;;29.03;19.33;;;6.90;45.40;;;;;;5057523;28;20024;-87
2022/03/07 09:18:13;;;;;;;29.03;20.27;;;7.10;45.10;;;;;;5057374;28;20533;-83
2022/03/07 09:20:40;;;;;;;28.27;17.90;;;7.20;44.40;;;;;;5055352;28;20115;-84
2022/03/07 09:23:05;;;;;;;26.93;18.50;;;7.20;44.50;;;;;;5055451;28;20021;-84
2022/03/07 09:25:31;;;;;;;30.03;18.47;;;7.20;44.20;;;;;;5050219;28;20021;-84
2022/03/07 09:27:57;;;;;;;25.63;18.77;;;7.20;44.40;;;;;;5052271;28;20547;-83
2022/03/07 09:30:23;;;;;;;23.67;17.50;;;7.40;44.30;;;;;;5055410;28;21630;-83
2022/03/07 09:32:50;;;;;;;25.43;17.73;;;7.50;43.80;;;;;;5057798;28;20456;-84
2022/03/07 09:35:16;;;;;;;25.00;18.47;;;7.50;43.50;;;;;;5056431;28;20030;-83
2022/03/07 09:37:42;;;;;;;25.87;18.67;;;7.40;43.40;;;;;;5070454;28;20546;-84
2022/03/07 09:40:08;;;;;;;26.40;17.63;;;7.50;43.40;;;;;;5071826;28;20029;-84
2022/03/07 09:42:35;;;;;;;27.63;17.90;;;7.60;43.20;;;;;;5067923;28;20029;-84
2022/03/07 09:45:01;;;;;;;27.57;17.60;;;7.70;43.10;;;;;;5073595;28;20366;-84
2022/03/07 09:47:28;;;;;;;29.23;17.47;;;7.80;42.80;;;;;;5052501;28;20047;-84
2022/03/07 09:49:54;;;;;;;26.80;17.37;;;7.80;42.80;;;;;;5052726;28;20021;-84
2022/03/07 09:52:20;;;;;;;23.30;15.53;;;8.00;42.80;;;;;;5054598;28;20482;-84
2022/03/07 09:54:46;;;;;;;26.07;16.70;;;8.20;42.60;;;;;;5074876;28;20070;-84
2022/03/07 09:57:12;;;;;;;24.43;15.97;;;8.40;42.50;;;;;;5057066;28;20024;-84
2022/03/07 09:59:38;;;;;;;23.40;16.53;;;8.50;42.20;;;;;;5057295;28;20115;-83
2022/03/07 10:02:06;;;;;;;26.00;16.23;;;8.80;42.10;;;;;;5079895;28;20024;-84
2022/03/07 10:04:40;;;;;;;28.80;17.67;;;8.80;41.50;;;;;;5083216;28;20020;-83
2022/03/07 10:07:06;;;;;;;23.37;16.63;;;8.90;41.30;;;;;;5070565;28;20027;-83
2022/03/07 10:09:31;;;;;;;25.63;16.40;;;8.80;41.00;;;;;;5082915;28;20127;-83
2022/03/07 10:12:03;;;;;;;23.17;16.27;;;8.90;41.20;;;;;;5081196;28;20028;-83
2022/03/07 10:14:29;;;;;;;26.73;16.93;;;9.00;41.10;;;;;;5055131;28;20041;-83
2022/03/07 10:16:55;;;;;;;25.40;17.60;;;8.90;40.80;;;;;;5074592;28;20513;-83
2022/03/07 10:19:21;;;;;;;24.20;17.63;;;8.90;40.90;;;;;;5055101;28;20064;-83
2022/03/07 10:21:52;;;;;;;20.97;16.00;;;9.10;41.10;;;;;;5052714;28;20039;-83
2022/03/07 10:24:30;;;;;;;27.30;16.87;;;9.20;40.60;;;;;;5056177;28;20025;-84
2022/03/07 10:26:55;;;;;;;23.83;18.03;;;9.30;40.20;;;;;;5056585;28;20031;-83
2022/03/07 10:29:21;;;;;;;22.87;16.83;;;9.00;39.90;;;;;;5056311;28;20115;-83
2022/03/07 10:31:48;;;;;;;26.03;16.33;;;9.00;40.30;;;;;;5056704;28;20028;-83
2022/03/07 10:34:13;;;;;;;23.13;16.57;;;9.20;40.20;;;;;;5056146;28;20501;-83
2022/03/07 10:36:42;;;;;;;28.47;16.63;;;9.50;39.80;;;;;;5074436;28;20037;-83
2022/03/07 10:39:10;;;;;;;25.10;17.53;;;9.60;39.60;;;;;;5055652;28;20029;-83
2022/03/07 10:41:45;;;;;;;21.60;15.67;;;9.60;38.90;;;;;;5055978;28;20501;-82
2022/03/07 10:44:26;;;;;;;25.03;17.17;;;9.50;39.00;;;;;;5055852;28;20454;-83
2022/03/07 10:46:52;;;;;;;23.43;15.93;;;9.60;38.90;;;;;;5072470;28;20024;-83
2022/03/07 10:49:18;;;;;;;22.07;15.03;;;9.70;38.80;;;;;;5073982;28;20021;-83
2022/03/07 10:51:54;;;;;;;21.63;15.93;;;9.70;38.50;;;;;;5055879;28;20032;-83
2022/03/07 10:54:23;;;;;;;21.20;14.77;;;9.30;38.00;;;;;;5052433;28;20025;-83
2022/03/07 10:56:53;;;;;;;21.57;15.03;;;9.30;38.20;;;;;;5064620;28;20194;-83
2022/03/07 10:59:34;;;;;;;29.60;16.27;;;9.50;38.00;;;;;;5055241;28;20058;-83
2022/03/07 11:02:11;;;;;;;17.87;12.60;;;9.30;37.40;;;;;;5063792;28;20112;-83
2022/03/07 11:04:48;;;;;;;21.77;15.73;;;9.40;37.90;;;;;;5060819;28;20028;-83
2022/03/07 11:07:15;;;;;;;21.13;15.33;;;9.60;37.40;;;;;;5055690;28;20059;-82
2022/03/07 11:09:41;;;;;;;25.00;14.70;;;9.50;36.90;;;;;;5055345;28;20776;-83
2022/03/07 11:12:12;;;;;;;22.27;15.73;;;9.40;36.90;;;;;;5070660;28;20033;-83
2022/03/07 11:14:40;;;;;;;27.00;15.83;;;9.40;36.60;;;;;;5055656;28;20029;-83
2022/03/07 11:17:11;;;;;;;24.80;15.20;;;9.40;36.90;;;;;;5055662;28;20386;-83
2022/03/07 11:19:39;;;;;;;19.27;14.77;;;9.60;36.90;;;;;;5055375;28;20119;-83
2022/03/07 11:22:06;;;;;;;19.40;14.37;;;9.80;36.90;;;;;;5055289;28;20074;-83
2022/03/07 11:24:36;;;;;;;22.47;15.63;;;9.80;36.40;;;;;;5070888;28;20055;-83
2022/03/07 11:27:03;;;;;;;25.93;15.57;;;9.80;36.50;;;;;;5073203;28;20025;-82
2022/03/07 11:29:40;;;;;;;21.23;15.27;;;9.80;36.40;;;;;;5054840;28;20028;-83
2022/03/07 11:32:14;;;;;;;25.60;15.60;;;10.00;36.30;;;;;;5073019;28;20032;-83
2022/03/07 11:34:57;;;;;;;24.27;16.47;;;10.00;36.00;;;;;;5057106;28;20070;-83
2022/03/07 11:37:31;;;;;;;23.80;15.43;;;9.80;35.90;;;;;;5051886;28;20050;-83
2022/03/07 11:39:58;;;;;;;26.60;16.20;;;9.80;35.80;;;;;;5056992;28;20035;-84
2022/03/07 11:42:36;;;;;;;25.27;16.17;;;9.70;35.90;;;;;;5071956;28;20115;-84
2022/03/07 11:45:18;;;;;;;24.10;16.80;;;9.60;35.80;;;;;;5054675;28;20784;-84
2022/03/07 11:47:46;;;;;;;23.90;16.47;;;9.70;35.70;;;;;;5041514;28;20501;-83
2022/03/07 11:50:12;;;;;;;20.83;15.20;;;9.60;35.50;;;;;;5072879;28;20020;-84
2022/03/07 11:52:38;;;;;;;23.17;16.37;;;9.70;35.60;;;;;;5053280;28;20424;-84
2022/03/07 11:55:13;;;;;;;24.93;16.90;;;9.50;35.40;;;;;;5052559;28;20041;-84
2022/03/07 11:57:42;;;;;;;21.07;13.37;;;9.60;35.40;;;;;;5054400;28;20417;-84
2022/03/07 12:00:27;;;;;;;22.10;15.47;;;9.60;35.50;;;;;;5054927;28;20413;-83
2022/03/07 12:02:56;;;;;;;21.30;16.07;;;9.60;35.30;;;;;;5061327;28;20028;-83
2022/03/07 12:05:31;;;;;;;22.43;16.00;;;9.60;35.40;;;;;;5071712;28;20139;-84
2022/03/07 12:08:15;;;;;;;26.07;15.60;;;9.50;35.10;;;;;;5064117;28;20025;-83
2022/03/07 12:10:59;;;;;;;22.50;15.03;;;9.60;35.30;;;;;;5059412;28;20043;-83
2022/03/07 12:13:27;;;;;;;22.73;16.23;;;9.70;35.30;;;;;;5054892;28;20032;-83
2022/03/07 12:15:55;;;;;;;21.20;16.23;;;9.80;35.20;;;;;;5054855;28;20029;-84
2022/03/07 12:18:22;;;;;;;20.97;13.83;;;10.00;35.40;;;;;;5053112;28;20095;-83
2022/03/07 12:20:52;;;;;;;22.60;16.00;;;10.20;35.20;;;;;;5052635;28;20028;-84
2022/03/07 12:23:20;;;;;;;18.40;12.87;;;10.30;35.00;;;;;;5054655;28;20025;-84
2022/03/07 12:25:47;;;;;;;26.03;15.10;;;10.20;35.00;;;;;;5072519;28;20158;-84
2022/03/07 12:28:13;;;;;;;29.37;16.73;;;10.30;35.00;;;;;;5073032;28;20021;-84
2022/03/07 12:30:39;;;;;;;25.70;16.43;;;10.30;34.90;;;;;;5072634;28;20036;-83
2022/03/07 12:33:09;;;;;;;20.77;15.30;;;10.20;34.60;;;;;;5054352;28;20092;-83
2022/03/07 12:35:35;;;;;;;21.87;16.03;;;10.20;34.50;;;;;;5054311;28;20033;-84